Adrian, Oregon
Current Conditions -  °F | °C
As of 5:53 AM on Thursday 27 Nov 2014 (Local Time) from KONO Reporting Station
Broken Clouds Broken Clouds  
Wind Chill: 37°   Ceiling: 12000
Heat Index: 37°   Visibility: 7mi
Dew Point: 35°   Wind: 3mph
Humidity: 93%   Direction: 280°W
Pressure: 30.17"   Gusts: NA
Location:  43.74°N, 117.07°W
Report Text: KONO 271253Z AUTO 28003KT 7SM BKN120 03/02 A3017 RMK AO2 SLP230 T00280017
Loading
Personal Weather Stations






























Interactive Weather Map New forecast layout! Learn more

10-Day Weather Forecast

Advertisements
Track Severe Weather on mobile